createdAt,value
2023-03-21T00:00:39.745Z,98872.81
2023-03-21T00:03:06.445Z,98864.91
2023-03-21T00:05:33.021Z,98855.22
2023-03-21T00:08:01.085Z,98867.53
2023-03-21T00:10:39.454Z,98860.50
2023-03-21T00:13:07.477Z,98867.53
2023-03-21T00:15:48.387Z,98863.94
2023-03-21T00:18:22.946Z,98864.00
2023-03-21T00:23:51.014Z,98871.06
2023-03-21T00:26:17.677Z,98869.28
2023-03-21T00:28:44.184Z,98868.41
2023-03-21T00:31:11.077Z,98874.56
2023-03-21T00:33:39.474Z,98871.94
2023-03-21T00:36:07.238Z,98860.50
2023-03-21T00:38:34.757Z,98850.84
2023-03-21T00:41:21.007Z,98856.06
2023-03-21T00:43:58.714Z,98849.09
2023-03-21T00:46:29.959Z,98857.00
2023-03-21T00:48:57.012Z,98856.13
2023-03-21T00:51:27.189Z,98857.88
2023-03-21T00:53:58.644Z,98846.44
2023-03-21T00:56:25.192Z,98849.09
2023-03-21T00:58:51.691Z,98848.22
2023-03-21T01:01:18.844Z,98845.56
2023-03-21T01:03:48.228Z,98845.56
2023-03-21T01:06:19.179Z,98839.41
2023-03-21T01:08:54.239Z,98846.47
2023-03-21T01:11:24.892Z,98841.19
2023-03-21T01:13:56.014Z,98841.19
2023-03-21T01:16:28.684Z,98829.75
2023-03-21T01:18:56.244Z,98833.25
2023-03-21T01:21:23.134Z,98837.66
2023-03-21T01:23:49.644Z,98829.75
2023-03-21T01:26:16.176Z,98839.41
2023-03-21T01:28:43.412Z,98831.44
2023-03-21T01:31:12.532Z,98826.16
2023-03-21T01:33:39.514Z,98834.94
2023-03-21T01:36:13.176Z,98823.50
2023-03-21T01:38:41.696Z,98825.28
2023-03-21T01:41:20.144Z,98820.00
2023-03-21T01:43:47.387Z,98822.63
2023-03-21T01:46:51.524Z,98823.50
2023-03-21T01:49:35.938Z,98815.59
2023-03-21T01:52:23.486Z,98817.38
2023-03-21T01:54:56.088Z,98820.88
2023-03-21T01:57:41.017Z,98815.63
2023-03-21T02:00:12.719Z,98809.47
2023-03-21T02:02:52.612Z,98812.16
2023-03-21T02:05:27.311Z,98813.03
2023-03-21T02:07:53.817Z,98813.94
2023-03-21T02:10:20.881Z,98812.19
2023-03-21T02:12:47.543Z,98813.94
2023-03-21T02:15:14.765Z,98808.66
2023-03-21T02:18:03.544Z,98802.50
2023-03-21T02:20:51.117Z,98806.03
2023-03-21T02:23:48.809Z,98797.22
2023-03-21T02:26:42.088Z,98801.63
2023-03-21T02:29:39.129Z,98792.78
2023-03-21T02:32:38.238Z,98789.25
2023-03-21T02:35:10.823Z,98789.25
2023-03-21T02:37:51.977Z,98788.38
2023-03-21T02:40:32.958Z,98780.50
2023-03-21T02:43:23.373Z,98781.38
2023-03-21T02:45:58.053Z,98773.47
2023-03-21T02:48:50.873Z,98781.41
2023-03-21T02:51:22.023Z,98785.81
2023-03-21T02:54:23.662Z,98792.00
2023-03-21T02:56:49.096Z,98784.97
2023-03-21T02:59:17.577Z,98783.22
2023-03-21T03:01:44.134Z,98786.69
2023-03-21T03:04:28.199Z,98786.69
2023-03-21T03:07:03.806Z,98777.00
2023-03-21T03:10:18.288Z,98777.00
2023-03-21T03:13:03.317Z,98781.38
2023-03-21T03:15:38.646Z,98777.00
2023-03-21T03:18:20.723Z,98780.47
2023-03-21T03:21:02.986Z,98775.19
2023-03-21T03:23:58.664Z,98776.06
2023-03-21T03:26:37.119Z,98770.81
2023-03-21T03:29:08.272Z,98773.47
2023-03-21T03:31:40.999Z,98770.84
2023-03-21T03:34:14.192Z,98768.22
2023-03-21T03:36:44.846Z,98771.72
2023-03-21T03:39:13.438Z,98769.97
2023-03-21T03:42:27.443Z,98767.28
2023-03-21T03:44:39.248Z,98755.03
2023-03-21T03:47:10.567Z,98757.66
2023-03-21T03:49:46.687Z,98760.31
2023-03-21T03:52:26.479Z,98756.78
2023-03-21T03:54:53.783Z,98754.16
2023-03-21T03:57:20.718Z,98761.22
2023-03-21T03:59:47.264Z,98746.25
2023-03-21T04:02:14.986Z,98762.06
2023-03-21T04:04:41.895Z,98761.22
2023-03-21T04:07:09.048Z,98759.44
2023-03-21T04:09:44.274Z,98753.31
2023-03-21T04:12:13.263Z,98744.50
2023-03-21T04:14:45.607Z,98744.53
2023-03-21T04:17:13.438Z,98749.81
2023-03-21T04:19:40.033Z,98739.25
2023-03-21T04:22:07.228Z,98739.25
2023-03-21T04:24:34.207Z,98742.78
2023-03-21T04:27:00.829Z,98742.78
2023-03-21T04:29:29.682Z,98741.03
2023-03-21T04:31:56.452Z,98746.31
2023-03-21T04:34:24.072Z,98748.94
2023-03-21T04:36:50.900Z,98746.28
2023-03-21T04:39:18.467Z,98741.88
2023-03-21T04:41:46.274Z,98736.56
2023-03-21T04:44:14.584Z,98734.81
2023-03-21T04:46:41.856Z,98734.81
2023-03-21T04:49:08.429Z,98733.94
2023-03-21T04:51:35.810Z,98731.34
2023-03-21T04:54:02.949Z,98739.25
2023-03-21T04:56:34.045Z,98738.34
2023-03-21T04:59:07.297Z,98741.88
2023-03-21T05:01:34.033Z,98746.25
2023-03-21T05:04:04.927Z,98741.00
2023-03-21T05:06:32.052Z,98738.38
2023-03-21T05:09:00.397Z,98742.72
2023-03-21T05:11:33.169Z,98748.00
2023-03-21T05:13:59.859Z,98749.75
2023-03-21T05:16:30.686Z,98741.84
2023-03-21T05:18:59.163Z,98747.13
2023-03-21T05:21:32.853Z,98742.72
2023-03-21T05:24:03.426Z,98737.47
2023-03-21T05:26:30.207Z,98733.94
2023-03-21T05:28:56.629Z,98733.06
2023-03-21T05:31:23.317Z,98733.97
2023-03-21T05:33:52.713Z,98734.88
2023-03-21T05:36:19.223Z,98732.22
2023-03-21T05:38:46.500Z,98734.00
2023-03-21T05:41:14.498Z,98734.88
2023-03-21T05:43:41.785Z,98732.22
2023-03-21T05:46:09.445Z,98736.63
2023-03-21T05:48:36.549Z,98733.09
2023-03-21T05:51:06.720Z,98729.59
2023-03-21T05:53:33.268Z,98735.75
2023-03-21T05:55:59.847Z,98737.50
2023-03-21T05:58:26.310Z,98734.00
2023-03-21T06:00:52.785Z,98737.50
2023-03-21T06:03:19.267Z,98734.88
2023-03-21T06:05:45.782Z,98732.22
2023-03-21T06:08:14.988Z,98729.59
2023-03-21T06:10:44.477Z,98737.56
2023-03-21T06:13:11.041Z,98730.47
2023-03-21T06:15:37.675Z,98724.31
2023-03-21T06:18:04.410Z,98719.94
2023-03-21T06:20:30.843Z,98727.88
2023-03-21T06:22:57.333Z,98732.31
2023-03-21T06:25:23.976Z,98729.69
2023-03-21T06:27:50.504Z,98727.03
2023-03-21T06:30:18.114Z,98727.03
2023-03-21T06:32:44.731Z,98717.41
2023-03-21T06:35:11.300Z,98734.13
2023-03-21T06:37:38.312Z,98725.31
2023-03-21T06:40:07.081Z,98726.19
2023-03-21T06:42:33.653Z,98722.69
2023-03-21T06:45:00.286Z,98720.97
2023-03-21T06:47:29.852Z,98728.88
2023-03-21T06:49:56.350Z,98727.13
2023-03-21T06:52:22.879Z,98721.84
2023-03-21T06:54:49.490Z,98727.13
2023-03-21T06:57:16.156Z,98728.94
2023-03-21T06:59:42.695Z,98723.63
2023-03-21T07:02:11.504Z,98732.47
2023-03-21T07:04:37.991Z,98725.41
2023-03-21T07:07:04.569Z,98723.63
2023-03-21T07:09:31.012Z,98729.81
2023-03-21T07:11:57.977Z,98724.53
2023-03-21T07:14:28.038Z,98721.88
2023-03-21T07:16:54.565Z,98721.88
2023-03-21T07:19:21.082Z,98711.31
2023-03-21T07:21:47.562Z,98712.19
2023-03-21T07:24:14.051Z,98715.72
2023-03-21T07:26:40.566Z,98720.13
2023-03-21T07:29:07.076Z,98721.88
2023-03-21T07:31:33.588Z,98711.31
2023-03-21T07:34:00.583Z,98718.38
2023-03-21T07:36:28.063Z,98718.38
2023-03-21T07:38:54.561Z,98720.13
2023-03-21T07:41:21.083Z,98719.25
2023-03-21T07:43:47.599Z,98718.38
2023-03-21T07:46:14.167Z,98705.16
2023-03-21T07:48:40.754Z,98712.22
2023-03-21T07:51:07.445Z,98713.09
2023-03-21T07:53:34.318Z,98706.94
2023-03-21T07:56:00.874Z,98713.97
2023-03-21T07:58:28.475Z,98716.63
2023-03-21T08:00:56.558Z,98716.63
2023-03-21T08:03:24.278Z,98713.97
2023-03-21T08:05:51.073Z,98717.50
2023-03-21T08:08:18.029Z,98727.19
2023-03-21T08:10:44.990Z,98728.94
2023-03-21T08:13:12.054Z,98724.53
2023-03-21T08:15:42.186Z,98725.41
2023-03-21T08:18:09.054Z,98727.19
2023-03-21T08:20:35.871Z,98726.28
2023-03-21T08:23:02.425Z,98723.63
2023-03-21T08:25:28.986Z,98732.47
2023-03-21T08:27:55.582Z,98728.94
2023-03-21T08:30:25.807Z,98732.47
2023-03-21T08:33:00.501Z,98726.28
2023-03-21T08:35:27.742Z,98720.09
2023-03-21T08:37:54.267Z,98723.63
2023-03-21T08:40:20.940Z,98721.88
2023-03-21T08:42:47.721Z,98721.88
2023-03-21T08:45:16.129Z,98720.09
2023-03-21T08:47:43.071Z,98720.13
2023-03-21T08:50:13.521Z,98727.19
2023-03-21T08:52:40.100Z,98722.78
2023-03-21T08:55:08.092Z,98737.75
2023-03-21T08:57:34.803Z,98739.50
2023-03-21T09:00:01.347Z,98734.22
2023-03-21T09:02:27.848Z,98738.63
2023-03-21T09:04:54.983Z,98743.03
2023-03-21T09:07:25.464Z,98735.97
2023-03-21T09:10:03.006Z,98738.59
2023-03-21T09:12:40.998Z,98737.69
2023-03-21T09:15:09.324Z,98738.53
2023-03-21T09:17:36.369Z,98738.38
2023-03-21T09:20:11.183Z,98738.31
2023-03-21T09:22:42.744Z,98740.97
2023-03-21T09:25:11.549Z,98736.53
2023-03-21T09:27:38.304Z,98740.06
2023-03-21T09:30:07.214Z,98732.97
2023-03-21T09:32:34.472Z,98732.13
2023-03-21T09:35:01.192Z,98732.16
2023-03-21T09:37:27.810Z,98732.16
2023-03-21T09:39:56.695Z,98728.63
2023-03-21T09:42:35.268Z,98737.44
2023-03-21T09:45:10.844Z,98738.25
2023-03-21T09:47:57.036Z,98721.41
2023-03-21T09:50:34.696Z,98720.44
2023-03-21T09:53:07.118Z,98716.91
2023-03-21T09:55:37.755Z,98715.13
2023-03-21T09:58:29.103Z,98719.56
2023-03-21T10:01:22.367Z,98717.84
2023-03-21T10:03:54.375Z,98717.81
2023-03-21T10:06:27.275Z,98719.56
2023-03-21T10:08:57.185Z,98712.50
2023-03-21T10:11:35.585Z,98723.97
2023-03-21T10:14:07.506Z,98721.28
2023-03-21T10:16:53.879Z,98723.03
2023-03-21T10:19:23.424Z,98718.59
2023-03-21T10:22:06.980Z,98715.00
2023-03-21T10:24:34.770Z,98715.81
2023-03-21T10:27:03.540Z,98712.19
2023-03-21T10:29:43.562Z,98702.41
2023-03-21T10:32:13.877Z,98698.72
2023-03-21T10:34:45.655Z,98691.09
2023-03-21T10:37:13.461Z,98693.16
2023-03-21T10:39:42.566Z,98688.28
2023-03-21T10:42:18.139Z,98690.16
2023-03-21T10:44:48.754Z,98681.94
2023-03-21T10:47:31.690Z,98695.06
2023-03-21T10:50:16.315Z,98702.47
2023-03-21T10:52:49.562Z,98703.84
2023-03-21T10:55:32.020Z,98702.44
2023-03-21T10:58:16.806Z,98694.63
2023-03-21T11:00:46.474Z,98695.47
2023-03-21T11:03:29.460Z,98698.16
2023-03-21T11:05:59.817Z,98688.41
2023-03-21T11:08:27.455Z,98683.84
2023-03-21T11:10:59.783Z,98682.94
2023-03-21T11:13:34.552Z,98686.44
2023-03-21T11:16:27.352Z,98676.72
2023-03-21T11:19:01.427Z,98663.41
2023-03-21T11:21:29.628Z,98672.25
2023-03-21T11:23:57.489Z,98667.03
2023-03-21T11:26:36.720Z,98678.59
2023-03-21T11:29:33.247Z,98683.09
2023-03-21T11:32:30.893Z,98670.69
2023-03-21T11:35:02.263Z,98673.28
2023-03-21T11:37:35.354Z,98670.56
2023-03-21T11:40:18.441Z,98666.13
2023-03-21T11:42:48.299Z,98670.47
2023-03-21T11:45:21.597Z,98668.69
2023-03-21T11:47:51.111Z,98667.88
2023-03-21T11:50:39.043Z,98662.63
2023-03-21T11:53:31.887Z,98659.91
2023-03-21T11:56:20.604Z,98649.28
2023-03-21T11:59:01.563Z,98651.06
2023-03-21T12:01:49.442Z,98644.00
2023-03-21T12:04:41.355Z,98646.50
2023-03-21T12:07:16.777Z,98642.91
2023-03-21T12:10:32.488Z,98640.16
2023-03-21T12:13:36.403Z,98631.13
2023-03-21T12:16:24.265Z,98626.53
2023-03-21T12:19:09.262Z,98626.63
2023-03-21T12:21:50.910Z,98629.50
2023-03-21T12:24:23.336Z,98626.94
2023-03-21T12:26:57.482Z,98627.09
2023-03-21T12:29:40.184Z,98621.78
2023-03-21T12:32:24.799Z,98616.47
2023-03-21T12:34:56.939Z,98619.09
2023-03-21T12:37:26.994Z,98610.22
2023-03-21T12:40:00.369Z,98600.50
2023-03-21T12:42:59.244Z,98606.72
2023-03-21T12:45:37.436Z,98599.59
2023-03-21T12:48:26.221Z,98599.59
2023-03-21T12:50:54.341Z,98612.00
2023-03-21T12:53:35.966Z,98601.44
2023-03-21T12:56:07.672Z,98607.72
2023-03-21T12:58:44.573Z,98601.56
2023-03-21T13:01:12.938Z,98607.91
2023-03-21T13:03:45.385Z,98607.09
2023-03-21T13:06:15.550Z,98608.06
2023-03-21T13:08:59.912Z,98586.88
2023-03-21T13:11:31.058Z,98598.50
2023-03-21T13:14:26.491Z,98592.41
2023-03-21T13:17:02.222Z,98589.78
2023-03-21T13:19:37.078Z,98592.47
2023-03-21T13:22:03.494Z,98585.41
2023-03-21T13:24:37.996Z,98577.47
2023-03-21T13:27:24.743Z,98573.97
2023-03-21T13:30:00.577Z,98581.03
2023-03-21T13:32:33.784Z,98577.56
2023-03-21T13:35:12.070Z,98579.34
2023-03-21T13:37:42.642Z,98569.59
2023-03-21T13:40:29.559Z,98571.34
2023-03-21T13:42:59.613Z,98567.84
2023-03-21T13:45:52.451Z,98572.31
2023-03-21T13:48:32.951Z,98567.91
2023-03-21T13:51:04.787Z,98562.56
2023-03-21T13:53:44.354Z,98561.75
2023-03-21T13:56:17.030Z,98563.56
2023-03-21T13:58:43.412Z,98563.56
2023-03-21T14:01:28.644Z,98559.19
2023-03-21T14:03:59.649Z,98554.72
2023-03-21T14:06:35.008Z,98553.84
2023-03-21T14:09:02.652Z,98558.28
2023-03-21T14:11:32.524Z,98557.41
2023-03-21T14:14:01.237Z,98544.19
2023-03-21T14:16:28.925Z,98536.28
2023-03-21T14:19:06.256Z,98538.06
2023-03-21T14:21:35.298Z,98539.84
2023-03-21T14:24:06.103Z,98537.19
2023-03-21T14:26:35.577Z,98534.63
2023-03-21T14:29:12.408Z,98531.09
2023-03-21T14:31:47.893Z,98537.25
2023-03-21T14:34:16.923Z,98525.84
2023-03-21T14:36:51.745Z,98531.16
2023-03-21T14:39:27.786Z,98532.06
2023-03-21T14:41:56.861Z,98515.28
2023-03-21T14:44:54.821Z,98517.97
2023-03-21T14:47:27.998Z,98519.78
2023-03-21T14:49:56.368Z,98518.94
2023-03-21T14:52:24.685Z,98516.31
2023-03-21T14:54:52.902Z,98513.69
2023-03-21T14:57:31.351Z,98507.63
2023-03-21T15:00:02.109Z,98505.84
2023-03-21T15:02:35.927Z,98510.28
2023-03-21T15:05:28.428Z,98509.47
2023-03-21T15:08:14.858Z,98503.31
2023-03-21T15:10:42.729Z,98506.03
2023-03-21T15:13:19.118Z,98499.00
2023-03-21T15:15:47.364Z,98499.00
2023-03-21T15:18:25.650Z,98506.09
2023-03-21T15:20:54.440Z,98504.38
2023-03-21T15:23:30.156Z,98509.66
2023-03-21T15:25:56.819Z,98500.84
2023-03-21T15:28:25.985Z,98494.69
2023-03-21T15:30:53.809Z,98492.97
2023-03-21T15:33:20.945Z,98499.16
2023-03-21T15:35:55.993Z,98497.38
2023-03-21T15:38:34.168Z,98490.28
2023-03-21T15:41:25.641Z,98493.81
2023-03-21T15:44:13.365Z,98488.50
2023-03-21T15:46:44.531Z,98493.78
2023-03-21T15:49:16.996Z,98491.13
2023-03-21T15:51:54.646Z,98489.38
2023-03-21T15:54:25.787Z,98489.38
2023-03-21T15:57:09.341Z,98482.31
2023-03-21T15:59:40.709Z,98480.59
2023-03-21T16:02:17.938Z,98482.38
2023-03-21T16:05:03.652Z,98477.06
2023-03-21T16:07:34.125Z,98473.56
2023-03-21T16:10:04.611Z,98471.78
2023-03-21T16:12:31.143Z,98474.44
2023-03-21T16:14:57.691Z,98470.91
2023-03-21T16:17:39.646Z,98470.06
2023-03-21T16:20:21.889Z,98481.53
2023-03-21T16:22:48.782Z,98478.94
2023-03-21T16:25:16.192Z,98474.53
2023-03-21T16:27:43.427Z,98468.34
2023-03-21T16:30:13.816Z,98461.31
2023-03-21T16:32:43.815Z,98459.56
2023-03-21T16:35:11.167Z,98464.03
2023-03-21T16:37:37.840Z,98457.88
2023-03-21T16:40:16.084Z,98441.09
2023-03-21T16:42:43.702Z,98434.94
2023-03-21T16:45:11.852Z,98421.69
2023-03-21T16:47:38.316Z,98416.41
2023-03-21T16:50:41.518Z,98415.56
2023-03-21T16:53:09.111Z,98416.41
2023-03-21T16:55:37.140Z,98408.47
2023-03-21T16:58:04.206Z,98410.25
2023-03-21T17:00:31.786Z,98403.16
2023-03-21T17:03:06.560Z,98398.75
2023-03-21T17:05:33.054Z,98389.94
2023-03-21T17:08:02.385Z,98395.19
2023-03-21T17:10:31.014Z,98398.66
2023-03-21T17:13:01.032Z,98396.00
2023-03-21T17:15:27.651Z,98388.94
2023-03-21T17:17:55.661Z,98382.75
2023-03-21T17:20:30.018Z,98379.22
2023-03-21T17:22:56.494Z,98381.84
2023-03-21T17:25:23.303Z,98370.38
2023-03-21T17:27:50.828Z,98370.41
2023-03-21T17:30:27.295Z,98363.34
2023-03-21T17:32:54.612Z,98363.44
2023-03-21T17:35:22.581Z,98369.69
2023-03-21T17:37:52.717Z,98366.22
2023-03-21T17:40:21.452Z,98369.78
2023-03-21T17:42:48.980Z,98377.69
2023-03-21T17:45:15.961Z,98385.53
2023-03-21T17:47:42.774Z,98380.25
2023-03-21T17:50:16.746Z,98374.97
2023-03-21T17:52:43.702Z,98385.56
2023-03-21T17:55:10.350Z,98395.31
2023-03-21T17:57:37.693Z,98386.47
2023-03-21T18:00:10.806Z,98382.97
2023-03-21T18:02:37.369Z,98393.56
2023-03-21T18:05:04.092Z,98397.97
2023-03-21T18:08:02.005Z,98396.22
2023-03-21T18:10:23.608Z,98393.59
2023-03-21T18:12:52.737Z,98385.66
2023-03-21T18:15:20.852Z,98395.34
2023-03-21T18:17:48.332Z,98382.16
2023-03-21T18:20:19.903Z,98369.84
2023-03-21T18:22:47.232Z,98373.38
2023-03-21T18:25:19.174Z,98383.94
2023-03-21T18:28:09.220Z,98389.25
2023-03-21T18:30:53.101Z,98383.06
2023-03-21T18:33:19.271Z,98397.16
2023-03-21T18:35:46.742Z,98396.31
2023-03-21T18:38:13.861Z,98402.47
2023-03-21T18:40:40.832Z,98405.13
2023-03-21T18:45:54.135Z,98402.50
2023-03-21T18:48:21.157Z,98397.22
2023-03-21T18:50:47.742Z,98391.94
2023-03-21T18:53:14.241Z,98391.94
2023-03-21T18:55:46.490Z,98398.03
2023-03-21T18:58:16.992Z,98391.88
2023-03-21T19:00:43.853Z,98412.16
2023-03-21T19:03:26.967Z,98405.13
2023-03-21T19:06:00.725Z,98402.50
2023-03-21T19:08:27.519Z,98386.63
2023-03-21T19:10:54.062Z,98393.66
2023-03-21T19:13:20.673Z,98386.63
2023-03-21T19:15:49.539Z,98382.22
2023-03-21T19:21:03.535Z,98374.34
2023-03-21T19:23:40.836Z,98380.56
2023-03-21T19:26:16.817Z,98394.69
2023-03-21T19:28:43.302Z,98397.34
2023-03-21T19:31:09.814Z,98412.34
2023-03-21T19:33:36.858Z,98432.66
2023-03-21T19:36:16.053Z,98423.88
2023-03-21T19:38:44.965Z,98429.16
2023-03-21T19:41:11.512Z,98435.34
2023-03-21T19:43:39.980Z,98438.91
2023-03-21T19:46:08.165Z,98447.72
2023-03-21T19:48:34.870Z,98438.94
2023-03-21T19:53:49.666Z,98447.75
2023-03-21T19:56:22.871Z,98444.22
2023-03-21T19:58:51.087Z,98454.84
2023-03-21T20:01:20.653Z,98442.50
2023-03-21T20:03:47.589Z,98436.34
2023-03-21T20:06:14.144Z,98442.50
2023-03-21T20:09:13.587Z,98451.34
2023-03-21T20:11:27.814Z,98447.81
2023-03-21T20:13:54.473Z,98448.69
2023-03-21T20:16:21.366Z,98435.44
2023-03-21T20:18:48.048Z,98432.84
2023-03-21T20:21:18.111Z,98425.81
2023-03-21T20:23:50.822Z,98417.03
2023-03-21T20:26:17.790Z,98424.09
2023-03-21T20:28:56.587Z,98432.91
2023-03-21T20:31:30.529Z,98429.44
2023-03-21T20:33:57.130Z,98430.31
2023-03-21T20:36:41.345Z,98440.91
2023-03-21T20:39:10.206Z,98444.41
2023-03-21T20:41:37.190Z,98449.75
2023-03-21T20:46:50.410Z,98462.09
2023-03-21T20:49:17.010Z,98453.28
2023-03-21T20:54:30.416Z,98448.03
2023-03-21T20:56:57.241Z,98453.31
2023-03-21T20:59:27.757Z,98453.34
2023-03-21T21:01:58.588Z,98446.28
2023-03-21T21:04:44.867Z,98442.75
2023-03-21T21:07:17.269Z,98447.16
2023-03-21T21:09:44.930Z,98448.03
2023-03-21T21:12:12.607Z,98449.81
2023-03-21T21:14:39.274Z,98438.34
2023-03-21T21:17:24.498Z,98433.91
2023-03-21T21:19:54.390Z,98436.53
2023-03-21T21:22:20.950Z,98432.13
2023-03-21T21:24:47.898Z,98441.81
2023-03-21T21:27:14.466Z,98434.78
2023-03-21T21:29:43.167Z,98427.75
2023-03-21T21:32:09.760Z,98435.63
2023-03-21T21:34:37.062Z,98427.66
2023-03-21T21:37:03.783Z,98429.44
2023-03-21T21:39:35.761Z,98430.31
2023-03-21T21:42:02.552Z,98420.63
2023-03-21T21:44:29.366Z,98411.81
2023-03-21T21:46:57.456Z,98408.31
2023-03-21T21:49:24.397Z,98412.75
2023-03-21T21:51:50.908Z,98414.50
2023-03-21T21:54:18.147Z,98405.72
2023-03-21T21:56:48.320Z,98401.31
2023-03-21T21:59:21.988Z,98397.78
2023-03-21T22:01:51.452Z,98394.25
2023-03-21T22:04:27.647Z,98395.16
2023-03-21T22:06:57.149Z,98387.22
2023-03-21T22:09:23.652Z,98390.72
2023-03-21T22:11:50.257Z,98390.72
2023-03-21T22:14:16.794Z,98391.59
2023-03-21T22:16:43.927Z,98390.72
2023-03-21T22:19:10.669Z,98380.19
2023-03-21T22:21:37.151Z,98375.78
2023-03-21T22:24:03.878Z,98382.81
2023-03-21T22:26:30.595Z,98380.16
2023-03-21T22:28:57.885Z,98380.13
2023-03-21T22:31:25.954Z,98387.16
2023-03-21T22:33:52.624Z,98389.78
2023-03-21T22:36:20.086Z,98397.72
2023-03-21T22:38:47.840Z,98399.50
2023-03-21T22:41:14.495Z,98392.44
2023-03-21T22:43:41.038Z,98391.56
2023-03-21T22:46:07.668Z,98395.09
2023-03-21T22:48:34.821Z,98391.56
2023-03-21T22:51:01.930Z,98385.38
2023-03-21T22:53:28.972Z,98373.94
2023-03-21T22:55:58.471Z,98375.69
2023-03-21T22:58:25.043Z,98374.78
2023-03-21T23:00:51.873Z,98369.44
2023-03-21T23:03:18.610Z,98370.31
2023-03-21T23:05:45.552Z,98373.00
2023-03-21T23:08:12.519Z,98360.66
2023-03-21T23:10:40.205Z,98363.28
2023-03-21T23:13:07.008Z,98364.16
2023-03-21T23:15:33.850Z,98363.25
2023-03-21T23:18:00.364Z,98350.06
2023-03-21T23:20:27.020Z,98349.19
2023-03-21T23:22:53.491Z,98350.00
2023-03-21T23:25:20.594Z,98351.78
2023-03-21T23:27:47.480Z,98341.19
2023-03-21T23:30:14.149Z,98353.53
2023-03-21T23:32:40.781Z,98350.00
2023-03-21T23:35:08.874Z,98351.78
2023-03-21T23:37:35.778Z,98354.41
2023-03-21T23:40:02.374Z,98349.13
2023-03-21T23:42:29.926Z,98357.09
2023-03-21T23:44:57.099Z,98367.69
2023-03-21T23:47:23.654Z,98352.72
2023-03-21T23:49:52.744Z,98355.38
2023-03-21T23:52:19.667Z,98362.41
2023-03-21T23:54:46.211Z,98355.38
2023-03-21T23:57:12.779Z,98352.75
2023-03-21T23:59:39.322Z,98351.00
